createdAt,value
2022-07-28T00:09:37.307Z,67.94
2022-07-28T00:21:37.715Z,68.67
2022-07-28T00:33:38.179Z,68.47
2022-07-28T00:45:38.662Z,72.22
2022-07-28T00:57:39.097Z,72.64
2022-07-28T01:09:39.543Z,77.13
2022-07-28T01:21:40.033Z,78.29
2022-07-28T01:33:40.471Z,75.64
2022-07-28T01:45:40.924Z,71.10
2022-07-28T01:57:41.345Z,69.07
2022-07-28T02:09:41.820Z,73.82
2022-07-28T02:21:42.310Z,70.50
2022-07-28T02:33:58.466Z,69.61
2022-07-28T02:45:43.179Z,68.38
2022-07-28T02:57:43.651Z,71.24
2022-07-28T03:09:44.106Z,70.28
2022-07-28T03:21:44.541Z,68.72
2022-07-28T03:33:44.999Z,67.33
2022-07-28T03:45:46.721Z,69.09
2022-07-28T03:57:45.941Z,67.18
2022-07-28T04:09:46.350Z,66.17
2022-07-28T04:21:46.783Z,66.33
2022-07-28T04:33:47.244Z,69.89
2022-07-28T04:45:53.210Z,68.77
2022-07-28T04:57:48.197Z,66.50
2022-07-28T05:09:48.635Z,70.70
2022-07-28T05:21:49.100Z,69.57
2022-07-28T05:33:49.565Z,67.85
2022-07-28T05:45:50.056Z,68.12
2022-07-28T05:57:50.420Z,67.94
2022-07-28T06:09:50.893Z,68.19
2022-07-28T06:21:51.388Z,68.92
2022-07-28T06:33:51.803Z,70.27
2022-07-28T06:45:52.264Z,70.93
2022-07-28T06:57:52.726Z,73.43
2022-07-28T07:09:53.218Z,70.64
2022-07-28T07:21:53.622Z,56.40
2022-07-28T07:33:54.066Z,62.54
2022-07-28T07:45:54.523Z,59.49
2022-07-28T07:57:55.034Z,54.18
2022-07-28T08:09:55.485Z,53.55
2022-07-28T08:21:55.920Z,51.41
2022-07-28T08:33:56.387Z,48.22
2022-07-28T08:45:58.680Z,46.19
2022-07-28T08:57:57.271Z,49.93
2022-07-28T09:09:57.815Z,41.50
2022-07-28T09:21:58.179Z,41.03
2022-07-28T09:33:58.666Z,38.08
2022-07-28T09:45:59.127Z,37.98
2022-07-28T09:57:59.577Z,40.22
2022-07-28T10:09:59.995Z,41.35
2022-07-28T10:22:00.478Z,40.24
2022-07-28T10:34:00.945Z,37.82
2022-07-28T10:46:06.935Z,33.34
2022-07-28T10:58:11.358Z,36.71
2022-07-28T11:10:02.326Z,39.83
2022-07-28T11:22:02.762Z,41.28
2022-07-28T11:34:03.211Z,38.62
2022-07-28T11:46:03.733Z,38.83
2022-07-28T11:58:04.133Z,32.93
2022-07-28T12:10:04.575Z,38.15
2022-07-28T12:22:05.028Z,32.92
2022-07-28T12:34:05.498Z,38.11
2022-07-28T12:46:06.025Z,36.79
2022-07-28T12:58:06.435Z,34.80
2022-07-28T13:10:06.838Z,35.50
2022-07-28T13:22:09.153Z,33.16
2022-07-28T13:34:07.805Z,36.32
2022-07-28T13:46:08.267Z,30.20
2022-07-28T13:58:09.035Z,28.29
2022-07-28T14:10:09.166Z,27.37
2022-07-28T14:22:13.863Z,29.68
2022-07-28T14:34:10.259Z,26.74
2022-07-28T14:46:16.164Z,27.94
2022-07-28T14:58:10.934Z,29.65
2022-07-28T15:10:11.464Z,25.82
2022-07-28T15:22:11.872Z,27.74
2022-07-28T15:34:12.674Z,26.59
2022-07-28T15:46:13.093Z,25.90
2022-07-28T15:58:13.297Z,25.71
2022-07-28T16:10:13.730Z,29.68
2022-07-28T16:22:14.190Z,29.05
2022-07-28T16:34:14.885Z,29.31
2022-07-28T16:46:15.136Z,32.70
2022-07-28T16:58:15.558Z,30.22
2022-07-28T17:10:20.478Z,31.38
2022-07-28T17:22:16.463Z,35.76
2022-07-28T17:34:17.394Z,38.53
2022-07-28T17:46:17.398Z,40.78
2022-07-28T17:58:17.808Z,43.10
2022-07-28T18:10:18.286Z,44.29
2022-07-28T18:22:18.784Z,46.54
2022-07-28T18:34:19.384Z,47.24
2022-07-28T18:46:19.708Z,49.12
2022-07-28T18:58:20.095Z,50.81
2022-07-28T19:10:20.582Z,50.19
2022-07-28T19:22:21.039Z,51.79
2022-07-28T19:34:21.455Z,52.69
2022-07-28T19:46:22.000Z,52.07
2022-07-28T19:58:22.412Z,54.25
2022-07-28T20:10:22.853Z,53.45
2022-07-28T20:22:23.292Z,54.70
2022-07-28T20:34:23.744Z,56.72
2022-07-28T20:46:24.296Z,57.03
2022-07-28T20:58:24.671Z,56.55
2022-07-28T21:10:25.129Z,55.49
2022-07-28T21:22:25.569Z,56.49
2022-07-28T21:34:26.066Z,56.56
2022-07-28T21:46:26.549Z,57.28
2022-07-28T21:58:26.978Z,58.06
2022-07-28T22:10:27.403Z,57.41
2022-07-28T22:22:27.886Z,58.08
2022-07-28T22:34:28.323Z,58.51
2022-07-28T22:46:28.762Z,59.23
2022-07-28T22:58:29.247Z,60.85
2022-07-28T23:10:29.688Z,60.08
2022-07-28T23:22:30.124Z,58.97
2022-07-28T23:34:30.589Z,59.02
2022-07-28T23:46:31.075Z,60.38
2022-07-28T23:58:31.465Z,59.57
